createdAt,value
2019-01-19T00:00:09.830Z,95100.64
2019-01-19T00:03:16.419Z,95097.16
2019-01-19T00:06:33.718Z,95093.66
2019-01-19T00:09:25.087Z,95086.09
2019-01-19T00:12:29.511Z,95086.31
2019-01-19T00:15:03.352Z,95085.65
2019-01-19T00:17:59.918Z,95080.65
2019-01-19T00:21:05.546Z,95077.14
2019-01-19T00:24:19.084Z,95078.39
2019-01-19T00:27:16.295Z,95103.59
2019-01-19T00:30:11.329Z,95077.52
2019-01-19T00:33:08.054Z,95074.84
2019-01-19T00:35:48.723Z,95074.34
2019-01-19T00:39:04.913Z,95079.48
2019-01-19T00:42:19.034Z,95072.56
2019-01-19T00:45:10.622Z,95079.06
2019-01-19T00:48:12.161Z,95081.84
2019-01-19T00:51:21.369Z,95079.83
2019-01-19T00:53:56.171Z,95086.16
2019-01-19T00:56:41.958Z,95076.38
2019-01-19T00:59:14.972Z,95077.60
2019-01-19T01:02:18.119Z,95078.67
2019-01-19T01:05:00.371Z,95068.48
2019-01-19T01:07:49.445Z,95064.17
2019-01-19T01:11:04.518Z,95068.99
2019-01-19T01:13:46.405Z,95067.81
2019-01-19T01:16:20.376Z,95070.31
2019-01-19T01:19:12.953Z,95070.31
2019-01-19T01:22:20.544Z,95069.77
2019-01-19T01:25:03.772Z,95061.37
2019-01-19T01:27:40.359Z,95070.11
2019-01-19T01:30:32.804Z,95062.64
2019-01-19T01:33:40.773Z,95068.38
2019-01-19T01:36:46.628Z,95065.48
2019-01-19T01:40:08.676Z,95065.48
2019-01-19T01:43:12.729Z,95061.39
2019-01-19T01:46:29.101Z,95060.61
2019-01-19T01:49:30.448Z,95055.00
2019-01-19T01:52:55.194Z,95050.34
2019-01-19T01:55:47.176Z,95053.80
2019-01-19T01:58:47.962Z,95054.48
2019-01-19T02:01:26.330Z,95047.44
2019-01-19T02:04:30.911Z,95046.27
2019-01-19T02:07:34.296Z,95050.09
2019-01-19T02:11:05.207Z,95050.09
2019-01-19T02:14:14.739Z,95041.29
2019-01-19T02:17:26.413Z,95046.84
2019-01-19T02:20:37.963Z,95038.00
2019-01-19T02:23:25.079Z,95125.53
2019-01-19T02:26:33.553Z,95047.25
2019-01-19T02:29:10.897Z,95033.25
2019-01-19T02:32:10.879Z,95033.25
2019-01-19T02:35:17.780Z,95029.18
2019-01-19T02:38:12.519Z,95033.84
2019-01-19T02:40:55.701Z,95028.81
2019-01-19T02:44:07.125Z,95030.16
2019-01-19T02:47:24.820Z,95023.78
2019-01-19T02:50:30.491Z,95022.42
2019-01-19T02:53:31.728Z,95021.77
2019-01-19T02:56:50.273Z,95021.30
2019-01-19T02:59:30.532Z,95017.07
2019-01-19T03:02:45.258Z,95014.55
2019-01-19T03:05:29.262Z,95020.95
2019-01-19T03:08:25.529Z,95014.73
2019-01-19T03:11:16.868Z,95014.73
2019-01-19T03:14:15.188Z,95015.02
2019-01-19T03:17:23.903Z,95010.35
2019-01-19T03:20:27.294Z,95007.36
2019-01-19T03:23:09.509Z,95003.05
2019-01-19T03:26:05.316Z,95001.77
2019-01-19T03:29:11.741Z,94990.89
2019-01-19T03:32:26.366Z,94995.20
2019-01-19T03:35:42.617Z,94993.45
2019-01-19T03:38:33.735Z,94998.38
2019-01-19T03:41:42.096Z,94998.38
2019-01-19T03:44:50.959Z,95002.00
2019-01-19T03:47:53.464Z,94995.08
2019-01-19T03:50:59.075Z,94990.12
2019-01-19T03:53:51.950Z,94990.55
2019-01-19T03:57:17.006Z,94986.94
2019-01-19T04:00:26.945Z,94987.34
2019-01-19T04:03:27.015Z,94981.56
2019-01-19T04:06:48.766Z,94986.13
2019-01-19T04:10:14.243Z,94981.47
2019-01-19T04:13:24.338Z,94976.53
2019-01-19T04:16:30.011Z,94976.36
2019-01-19T04:19:25.280Z,94975.47
2019-01-19T04:22:29.104Z,94975.80
2019-01-19T04:25:47.964Z,94971.89
2019-01-19T04:28:17.818Z,94966.42
2019-01-19T04:30:46.402Z,94969.49
2019-01-19T04:33:14.980Z,94961.31
2019-01-19T04:35:43.867Z,94963.86
2019-01-19T04:38:12.438Z,94962.02
2019-01-19T04:40:41.139Z,94969.38
2019-01-19T04:43:09.784Z,94960.99
2019-01-19T04:45:38.354Z,94955.67
2019-01-19T04:48:08.078Z,94954.27
2019-01-19T04:50:36.677Z,94955.67
2019-01-19T04:53:05.422Z,94953.13
2019-01-19T04:55:34.062Z,94952.16
2019-01-19T04:58:02.897Z,94958.98
2019-01-19T05:00:31.513Z,94954.69
2019-01-19T05:03:00.091Z,94957.58
2019-01-19T05:05:28.685Z,94954.41
2019-01-19T05:07:57.251Z,94951.03
2019-01-19T05:10:25.844Z,94947.78
2019-01-19T05:12:54.527Z,94946.05
2019-01-19T05:15:23.309Z,94948.56
2019-01-19T05:17:52.079Z,94950.78
2019-01-19T05:20:21.005Z,94947.27
2019-01-19T05:22:49.576Z,94946.36
2019-01-19T05:25:18.368Z,94947.80
2019-01-19T05:27:46.959Z,94944.83
2019-01-19T05:30:17.672Z,94944.67
2019-01-19T05:32:46.292Z,94940.73
2019-01-19T05:35:15.223Z,94939.16
2019-01-19T05:37:43.848Z,94934.81
2019-01-19T05:40:12.924Z,94940.13
2019-01-19T05:42:41.708Z,94937.06
2019-01-19T05:45:12.088Z,94938.06
2019-01-19T05:47:40.764Z,94938.80
2019-01-19T05:50:12.858Z,94939.41
2019-01-19T05:52:41.434Z,94942.01
2019-01-19T05:55:10.170Z,94943.05
2019-01-19T05:57:38.865Z,94942.13
2019-01-19T06:00:13.977Z,94933.96
2019-01-19T06:02:42.712Z,94936.38
2019-01-19T06:05:11.571Z,94936.79
2019-01-19T06:07:41.586Z,94929.94
2019-01-19T06:10:13.098Z,94937.28
2019-01-19T06:12:41.741Z,94935.95
2019-01-19T06:15:11.801Z,94935.72
2019-01-19T06:17:40.406Z,94936.11
2019-01-19T06:20:10.282Z,94927.95
2019-01-19T06:22:38.851Z,94928.86
2019-01-19T06:25:08.642Z,94929.20
2019-01-19T06:27:37.374Z,94929.28
2019-01-19T06:30:07.859Z,94929.10
2019-01-19T06:32:36.461Z,94926.38
2019-01-19T06:35:06.084Z,94917.63
2019-01-19T06:37:34.691Z,94924.19
2019-01-19T06:40:03.580Z,94919.36
2019-01-19T06:42:32.369Z,94924.82
2019-01-19T06:45:00.924Z,94921.63
2019-01-19T06:47:29.523Z,94923.25
2019-01-19T06:49:58.100Z,94922.83
2019-01-19T06:52:26.668Z,94921.75
2019-01-19T06:54:55.236Z,94921.47
2019-01-19T06:57:23.821Z,94922.95
2019-01-19T06:59:52.435Z,94925.21
2019-01-19T07:02:20.988Z,94926.04
2019-01-19T07:04:49.586Z,94924.50
2019-01-19T07:07:18.138Z,94925.08
2019-01-19T07:09:46.773Z,94925.63
2019-01-19T07:12:15.332Z,94925.63
2019-01-19T07:14:44.071Z,94918.95
2019-01-19T07:17:12.644Z,94922.84
2019-01-19T07:19:41.251Z,94926.72
2019-01-19T07:22:10.139Z,94924.30
2019-01-19T07:24:38.721Z,94928.26
2019-01-19T07:27:07.782Z,94924.48
2019-01-19T07:29:36.358Z,94929.27
2019-01-19T07:32:05.012Z,94927.53
2019-01-19T07:34:33.618Z,94929.41
2019-01-19T07:37:02.220Z,94928.59
2019-01-19T07:39:30.829Z,94928.88
2019-01-19T07:41:59.400Z,94924.97
2019-01-19T07:44:27.991Z,94927.77
2019-01-19T07:46:57.542Z,94930.41
2019-01-19T07:49:26.120Z,94930.13
2019-01-19T07:51:54.677Z,94935.78
2019-01-19T07:54:23.269Z,94928.66
2019-01-19T07:56:52.219Z,94938.78
2019-01-19T07:59:20.835Z,94932.77
2019-01-19T08:01:49.477Z,94936.11
2019-01-19T08:04:18.104Z,94942.47
2019-01-19T08:06:46.703Z,94939.05
2019-01-19T08:09:15.330Z,94937.28
2019-01-19T08:11:43.964Z,94939.22
2019-01-19T08:14:12.624Z,94938.31
2019-01-19T08:16:41.229Z,94943.48
2019-01-19T08:19:09.906Z,94943.50
2019-01-19T08:21:38.517Z,94943.56
2019-01-19T08:24:07.111Z,94940.87
2019-01-19T08:26:35.695Z,94939.13
2019-01-19T08:29:04.270Z,94939.61
2019-01-19T08:31:32.859Z,94942.78
2019-01-19T08:34:01.464Z,94935.52
2019-01-19T08:36:30.047Z,94939.23
2019-01-19T08:38:58.855Z,94936.11
2019-01-19T08:41:27.568Z,94949.48
2019-01-19T08:43:59.018Z,94946.00
2019-01-19T08:46:27.579Z,94937.50
2019-01-19T08:48:56.177Z,94940.87
2019-01-19T08:51:24.751Z,94940.97
2019-01-19T08:53:53.333Z,94940.13
2019-01-19T08:56:21.911Z,94942.47
2019-01-19T08:58:50.488Z,94943.67
2019-01-19T09:01:19.075Z,94940.09
2019-01-19T09:03:47.926Z,94938.89
2019-01-19T09:06:16.561Z,94947.45
2019-01-19T09:08:45.154Z,94936.66
2019-01-19T09:11:13.780Z,94942.06
2019-01-19T09:13:42.403Z,94942.20
2019-01-19T09:16:19.382Z,94941.52
2019-01-19T09:18:47.956Z,94938.75
2019-01-19T09:21:16.545Z,94939.05
2019-01-19T09:23:52.522Z,94935.64
2019-01-19T09:26:21.427Z,94935.14
2019-01-19T09:28:50.027Z,94934.06
2019-01-19T09:31:18.679Z,94939.13
2019-01-19T09:33:47.384Z,94940.91
2019-01-19T09:36:15.996Z,94937.06
2019-01-19T09:38:44.661Z,94938.67
2019-01-19T09:41:13.247Z,94934.28
2019-01-19T09:43:41.835Z,94945.19
2019-01-19T09:46:10.501Z,94938.77
2019-01-19T09:48:39.095Z,94938.38
2019-01-19T09:51:07.802Z,94932.35
2019-01-19T09:53:36.382Z,94939.96
2019-01-19T09:56:05.486Z,94944.09
2019-01-19T09:58:34.331Z,94937.83
2019-01-19T10:01:03.141Z,94936.98
2019-01-19T10:03:31.795Z,94934.92
2019-01-19T10:06:00.449Z,94934.50
2019-01-19T10:08:29.042Z,94935.97
2019-01-19T10:10:57.808Z,94931.22
2019-01-19T10:13:26.376Z,94926.56
2019-01-19T10:15:55.027Z,94931.44
2019-01-19T10:18:24.004Z,94928.99
2019-01-19T10:20:52.818Z,94932.59
2019-01-19T10:23:21.402Z,94928.09
2019-01-19T10:25:49.987Z,94918.30
2019-01-19T10:28:18.549Z,94919.51
2019-01-19T10:30:47.401Z,94919.46
2019-01-19T10:33:15.986Z,94924.67
2019-01-19T10:35:44.664Z,94920.27
2019-01-19T10:38:13.248Z,94915.56
2019-01-19T10:40:41.845Z,94915.97
2019-01-19T10:43:10.456Z,94918.28
2019-01-19T10:45:39.023Z,94918.41
2019-01-19T10:48:07.678Z,94909.95
2019-01-19T10:50:36.276Z,94909.17
2019-01-19T10:53:04.934Z,94913.25
2019-01-19T10:55:33.497Z,94909.70
2019-01-19T10:58:02.073Z,94906.08
2019-01-19T11:00:31.037Z,94905.99
2019-01-19T11:02:59.859Z,94906.94
2019-01-19T11:05:28.648Z,94903.80
2019-01-19T11:08:03.645Z,94900.05
2019-01-19T11:10:29.436Z,94898.59
2019-01-19T11:12:58.225Z,94900.22
2019-01-19T11:15:26.896Z,94900.70
2019-01-19T11:17:55.565Z,94889.80
2019-01-19T11:20:28.397Z,94898.19
2019-01-19T11:22:57.895Z,94895.42
2019-01-19T11:25:26.559Z,94886.99
2019-01-19T11:27:55.212Z,94889.70
2019-01-19T11:30:28.362Z,94885.66
2019-01-19T11:32:56.955Z,94880.31
2019-01-19T11:35:25.634Z,94879.59
2019-01-19T11:37:54.281Z,94874.31
2019-01-19T11:40:25.265Z,94876.88
2019-01-19T11:42:53.920Z,94870.83
2019-01-19T11:45:22.724Z,94865.00
2019-01-19T11:47:51.672Z,94859.14
2019-01-19T11:50:20.517Z,94868.16
2019-01-19T11:52:49.200Z,94865.91
2019-01-19T11:55:21.143Z,94856.36
2019-01-19T11:57:51.760Z,94860.66
2019-01-19T12:00:22.259Z,94852.70
2019-01-19T12:02:50.861Z,94847.48
2019-01-19T12:05:19.647Z,94850.46
2019-01-19T12:07:48.319Z,94841.87
2019-01-19T12:10:19.179Z,94849.06
2019-01-19T12:12:47.839Z,94845.22
2019-01-19T12:15:16.796Z,94842.83
2019-01-19T12:17:45.374Z,94836.23
2019-01-19T12:20:17.063Z,94832.61
2019-01-19T12:22:45.743Z,94833.64
2019-01-19T12:25:15.783Z,94828.92
2019-01-19T12:27:44.421Z,94825.67
2019-01-19T12:30:21.131Z,94825.42
2019-01-19T12:32:49.667Z,94822.74
2019-01-19T12:35:18.414Z,94820.83
2019-01-19T12:37:47.274Z,94818.29
2019-01-19T12:40:17.410Z,94815.30
2019-01-19T12:42:47.154Z,94817.41
2019-01-19T12:45:19.204Z,94808.53
2019-01-19T12:47:47.770Z,94804.70
2019-01-19T12:50:18.951Z,94802.39
2019-01-19T12:52:47.526Z,94801.33
2019-01-19T12:55:17.330Z,94792.89
2019-01-19T12:57:46.212Z,94791.27
2019-01-19T13:00:17.576Z,94780.72
2019-01-19T13:02:46.310Z,94790.52
2019-01-19T13:05:35.907Z,94787.48
2019-01-19T13:08:04.922Z,94784.41
2019-01-19T13:10:40.528Z,94779.73
2019-01-19T13:13:21.728Z,94776.06
2019-01-19T13:16:14.781Z,94771.48
2019-01-19T13:19:00.658Z,94771.09
2019-01-19T13:21:56.319Z,94771.39
2019-01-19T13:24:36.540Z,94771.09
2019-01-19T13:27:39.608Z,94766.48
2019-01-19T13:30:37.545Z,94764.89
2019-01-19T13:33:32.017Z,94757.70
2019-01-19T13:36:23.989Z,94757.39
2019-01-19T13:39:42.828Z,94756.70
2019-01-19T13:42:51.243Z,94752.41
2019-01-19T13:46:06.475Z,94753.61
2019-01-19T13:48:50.095Z,94755.58
2019-01-19T13:51:39.246Z,94750.23
2019-01-19T13:54:48.148Z,94753.59
2019-01-19T13:57:45.402Z,94752.14
2019-01-19T14:00:40.136Z,94760.55
2019-01-19T14:03:31.596Z,94759.66
2019-01-19T14:06:40.325Z,94757.64
2019-01-19T14:10:11.312Z,94759.73
2019-01-19T14:13:14.009Z,94753.59
2019-01-19T14:15:52.735Z,94753.31
2019-01-19T14:18:48.578Z,94745.96
2019-01-19T14:22:09.137Z,94742.58
2019-01-19T14:25:27.761Z,94742.64
2019-01-19T14:28:18.061Z,94744.95
2019-01-19T14:31:27.161Z,94737.19
2019-01-19T14:34:14.093Z,94737.36
2019-01-19T14:36:54.933Z,94742.77
2019-01-19T14:39:59.535Z,94737.38
2019-01-19T14:43:03.253Z,94735.63
2019-01-19T14:45:42.179Z,94728.61
2019-01-19T14:48:52.119Z,94726.61
2019-01-19T14:52:06.865Z,94721.72
2019-01-19T14:55:07.684Z,94727.47
2019-01-19T14:57:49.642Z,94718.41
2019-01-19T15:01:10.025Z,94718.87
2019-01-19T15:03:58.176Z,94719.27
2019-01-19T15:06:42.399Z,94708.09
2019-01-19T15:09:34.406Z,94709.92
2019-01-19T15:12:24.885Z,94713.99
2019-01-19T15:15:38.233Z,94706.70
2019-01-19T15:18:38.731Z,94703.28
2019-01-19T15:21:13.445Z,94706.63
2019-01-19T15:24:15.689Z,94716.81
2019-01-19T15:27:18.555Z,94712.16
2019-01-19T15:30:29.095Z,94711.22
2019-01-19T15:33:20.262Z,94706.70
2019-01-19T15:36:17.874Z,94708.68
2019-01-19T15:39:12.360Z,94706.13
2019-01-19T15:42:34.309Z,94704.37
2019-01-19T15:45:56.352Z,94708.08
2019-01-19T15:48:47.120Z,94702.91
2019-01-19T15:51:54.236Z,94710.66
2019-01-19T15:54:58.543Z,94705.48
2019-01-19T15:57:47.935Z,94702.69
2019-01-19T16:00:48.367Z,94701.91
2019-01-19T16:03:48.410Z,94700.03
2019-01-19T16:06:38.340Z,94703.98
2019-01-19T16:09:48.081Z,94702.55
2019-01-19T16:13:13.005Z,94701.23
2019-01-19T16:16:24.576Z,94698.10
2019-01-19T16:19:25.845Z,94696.03
2019-01-19T16:22:30.530Z,94695.33
2019-01-19T16:25:52.434Z,94690.89
2019-01-19T16:28:38.326Z,94695.33
2019-01-19T16:31:36.379Z,94697.11
2019-01-19T16:34:24.994Z,94696.41
2019-01-19T16:37:21.987Z,94701.11
2019-01-19T16:40:30.881Z,94699.34
2019-01-19T16:43:40.938Z,94694.73
2019-01-19T16:46:31.346Z,94692.89
2019-01-19T16:49:13.384Z,94691.02
2019-01-19T16:52:26.550Z,94686.33
2019-01-19T16:55:18.903Z,94693.48
2019-01-19T16:58:01.155Z,94694.07
2019-01-19T17:01:18.946Z,94691.47
2019-01-19T17:03:58.563Z,94686.88
2019-01-19T17:07:18.169Z,94684.19
2019-01-19T17:10:10.919Z,94683.73
2019-01-19T17:13:17.596Z,94691.88
2019-01-19T17:16:23.127Z,94680.50
2019-01-19T17:19:15.131Z,94680.56
2019-01-19T17:22:10.364Z,94676.03
2019-01-19T17:25:31.357Z,94676.99
2019-01-19T17:28:26.567Z,94676.53
2019-01-19T17:31:18.213Z,94679.16
2019-01-19T17:34:25.331Z,94678.32
2019-01-19T17:37:25.934Z,94674.47
2019-01-19T17:40:34.916Z,94672.67
2019-01-19T17:43:32.456Z,94677.97
2019-01-19T17:46:23.723Z,94684.45
2019-01-19T17:49:33.720Z,94677.55
2019-01-19T17:52:46.165Z,94684.02
2019-01-19T17:55:23.946Z,94681.64
2019-01-19T17:58:33.224Z,94680.10
2019-01-19T18:01:38.542Z,94685.31
2019-01-19T18:04:29.617Z,94682.23
2019-01-19T18:07:21.662Z,94683.34
2019-01-19T18:10:26.184Z,94683.84
2019-01-19T18:13:32.958Z,94686.25
2019-01-19T18:16:28.269Z,94681.17
2019-01-19T18:19:15.805Z,94683.00
2019-01-19T18:22:25.964Z,94682.70
2019-01-19T18:25:31.062Z,94679.13
2019-01-19T18:28:37.929Z,94675.92
2019-01-19T18:31:41.222Z,94667.71
2019-01-19T18:34:44.757Z,94676.95
2019-01-19T18:37:43.341Z,94677.19
2019-01-19T18:40:57.230Z,94674.19
2019-01-19T18:43:47.587Z,94669.38
2019-01-19T18:47:04.793Z,94665.09
2019-01-19T18:50:02.287Z,94670.36
2019-01-19T18:52:47.911Z,94674.66
2019-01-19T18:55:40.570Z,94664.95
2019-01-19T18:58:59.568Z,94666.56
2019-01-19T19:01:49.452Z,94662.66
2019-01-19T19:05:07.122Z,94667.35
2019-01-19T19:08:08.713Z,94662.55
2019-01-19T19:11:10.729Z,94656.02
2019-01-19T19:13:59.626Z,94651.68
2019-01-19T19:16:56.923Z,94651.83
2019-01-19T19:20:00.674Z,94648.66
2019-01-19T19:22:44.859Z,94651.87
2019-01-19T19:25:35.408Z,94647.08
2019-01-19T19:28:34.756Z,94650.02
2019-01-19T19:32:08.809Z,94646.27
2019-01-19T19:34:55.666Z,94654.06
2019-01-19T19:37:39.981Z,94652.72
2019-01-19T19:40:35.112Z,94651.55
2019-01-19T19:43:31.691Z,94654.08
2019-01-19T19:46:36.569Z,94652.66
2019-01-19T19:49:46.748Z,94654.39
2019-01-19T19:52:15.318Z,94652.06
2019-01-19T19:54:52.099Z,94654.45
2019-01-19T19:57:21.035Z,94647.12
2019-01-19T19:59:49.620Z,94649.72
2019-01-19T20:02:18.274Z,94655.09
2019-01-19T20:04:46.921Z,94654.83
2019-01-19T20:07:15.700Z,94656.36
2019-01-19T20:09:44.333Z,94654.66
2019-01-19T20:12:12.909Z,94656.97
2019-01-19T20:14:41.620Z,94660.30
2019-01-19T20:17:10.312Z,94655.20
2019-01-19T20:19:38.999Z,94660.36
2019-01-19T20:22:07.667Z,94662.66
2019-01-19T20:24:36.234Z,94664.41
2019-01-19T20:27:05.104Z,94661.16
2019-01-19T20:29:33.673Z,94661.97
2019-01-19T20:32:04.508Z,94661.92
2019-01-19T20:34:33.131Z,94654.56
2019-01-19T20:37:01.959Z,94652.61
2019-01-19T20:39:30.862Z,94646.66
2019-01-19T20:41:59.431Z,94651.39
2019-01-19T20:44:28.051Z,94648.94
2019-01-19T20:46:56.632Z,94650.64
2019-01-19T20:49:25.280Z,94643.23
2019-01-19T20:51:53.945Z,94645.38
2019-01-19T20:54:22.524Z,94645.22
2019-01-19T20:56:51.108Z,94648.03
2019-01-19T20:59:19.686Z,94643.99
2019-01-19T21:01:48.290Z,94642.00
2019-01-19T21:04:18.591Z,94645.50
2019-01-19T21:06:47.380Z,94640.78
2019-01-19T21:09:15.945Z,94648.63
2019-01-19T21:11:44.580Z,94647.80
2019-01-19T21:14:13.161Z,94650.93
2019-01-19T21:16:41.741Z,94646.47
2019-01-19T21:19:10.377Z,94645.53
2019-01-19T21:21:38.997Z,94639.44
2019-01-19T21:24:07.591Z,94646.11
2019-01-19T21:26:36.182Z,94646.50
2019-01-19T21:29:04.946Z,94646.66
2019-01-19T21:31:33.568Z,94646.03
2019-01-19T21:34:02.143Z,94643.87
2019-01-19T21:36:30.746Z,94646.11
2019-01-19T21:38:59.339Z,94640.11
2019-01-19T21:41:27.946Z,94641.55
2019-01-19T21:43:56.519Z,94639.12
2019-01-19T21:46:25.140Z,94643.46
2019-01-19T21:48:53.728Z,94646.48
2019-01-19T21:51:22.355Z,94642.92
2019-01-19T21:53:50.906Z,94643.30
2019-01-19T21:56:19.504Z,94648.88
2019-01-19T21:58:48.170Z,94648.86
2019-01-19T22:01:16.762Z,94645.84
2019-01-19T22:03:45.353Z,94650.20
2019-01-19T22:06:13.921Z,94647.25
2019-01-19T22:08:42.535Z,94645.84
2019-01-19T22:11:11.156Z,94650.08
2019-01-19T22:13:39.712Z,94651.99
2019-01-19T22:16:08.303Z,94648.28
2019-01-19T22:18:36.893Z,94652.81
2019-01-19T22:21:05.466Z,94656.98
2019-01-19T22:23:34.046Z,94652.39
2019-01-19T22:26:02.729Z,94650.59
2019-01-19T22:28:31.326Z,94658.56
2019-01-19T22:30:59.974Z,94655.70
2019-01-19T22:33:28.877Z,94649.58
2019-01-19T22:35:57.442Z,94656.56
2019-01-19T22:38:26.122Z,94650.20
2019-01-19T22:40:54.712Z,94655.38
2019-01-19T22:43:31.473Z,94655.32
2019-01-19T22:46:00.077Z,94655.25
2019-01-19T22:48:28.640Z,94654.80
2019-01-19T22:50:58.052Z,94658.25
2019-01-19T22:53:26.717Z,94654.06
2019-01-19T22:55:55.300Z,94658.44
2019-01-19T22:58:23.923Z,94658.87
2019-01-19T23:01:29.284Z,94659.48
2019-01-19T23:03:58.461Z,94655.53
2019-01-19T23:06:28.650Z,94651.91
2019-01-19T23:08:58.362Z,94654.84
2019-01-19T23:11:33.842Z,94650.22
2019-01-19T23:13:58.692Z,94651.86
2019-01-19T23:16:27.920Z,94650.31
2019-01-19T23:18:57.084Z,94650.73
2019-01-19T23:21:26.711Z,94655.46
2019-01-19T23:23:55.904Z,94650.73
2019-01-19T23:26:25.587Z,94649.84
2019-01-19T23:28:54.750Z,94649.25
2019-01-19T23:31:23.815Z,94644.45
2019-01-19T23:33:53.099Z,94648.31
2019-01-19T23:36:22.393Z,94645.86
2019-01-19T23:38:51.698Z,94649.18
2019-01-19T23:41:21.021Z,94643.52
2019-01-19T23:43:50.210Z,94638.60
2019-01-19T23:46:19.385Z,94639.56
2019-01-19T23:48:47.961Z,94640.94
2019-01-19T23:51:16.729Z,94639.19
2019-01-19T23:53:45.310Z,94638.00
2019-01-19T23:56:14.112Z,94634.75
2019-01-19T23:58:42.719Z,94626.09
